sensor_id;sensor_type;location;lat;lon;timestamp;P1;durP1;ratioP1;P2;durP2;ratioP2
9906;SDS011;4992;51.628;6.664;2023-08-06T00:02:01;4.75;;;3.92;;
9906;SDS011;4992;51.628;6.664;2023-08-06T00:04:27;5.70;;;3.60;;
9906;SDS011;4992;51.628;6.664;2023-08-06T00:06:53;5.72;;;3.60;;
9906;SDS011;4992;51.628;6.664;2023-08-06T00:09:19;4.10;;;3.75;;
9906;SDS011;4992;51.628;6.664;2023-08-06T00:11:44;4.35;;;3.70;;
9906;SDS011;4992;51.628;6.664;2023-08-06T00:14:11;4.45;;;4.05;;
9906;SDS011;4992;51.628;6.664;2023-08-06T00:16:40;5.55;;;4.05;;
9906;SDS011;4992;51.628;6.664;2023-08-06T00:19:06;5.30;;;4.25;;
9906;SDS011;4992;51.628;6.664;2023-08-06T00:21:32;4.90;;;3.70;;
9906;SDS011;4992;51.628;6.664;2023-08-06T00:23:58;5.47;;;4.13;;
9906;SDS011;4992;51.628;6.664;2023-08-06T00:26:24;4.15;;;3.63;;
9906;SDS011;4992;51.628;6.664;2023-08-06T00:28:49;5.03;;;3.97;;
9906;SDS011;4992;51.628;6.664;2023-08-06T00:31:16;4.75;;;3.90;;
9906;SDS011;4992;51.628;6.664;2023-08-06T00:33:42;4.05;;;3.75;;
9906;SDS011;4992;51.628;6.664;2023-08-06T00:36:08;5.55;;;4.07;;
9906;SDS011;4992;51.628;6.664;2023-08-06T00:38:34;4.13;;;3.78;;
9906;SDS011;4992;51.628;6.664;2023-08-06T00:41:00;5.90;;;3.70;;
9906;SDS011;4992;51.628;6.664;2023-08-06T00:43:26;4.50;;;4.10;;
9906;SDS011;4992;51.628;6.664;2023-08-06T00:45:52;6.05;;;4.13;;
9906;SDS011;4992;51.628;6.664;2023-08-06T00:48:18;5.50;;;3.90;;
9906;SDS011;4992;51.628;6.664;2023-08-06T00:50:45;6.30;;;4.00;;
9906;SDS011;4992;51.628;6.664;2023-08-06T00:53:11;4.13;;;3.83;;
9906;SDS011;4992;51.628;6.664;2023-08-06T00:55:37;4.68;;;4.20;;
9906;SDS011;4992;51.628;6.664;2023-08-06T00:58:03;6.07;;;4.22;;
9906;SDS011;4992;51.628;6.664;2023-08-06T01:00:29;4.22;;;3.83;;
9906;SDS011;4992;51.628;6.664;2023-08-06T01:02:55;4.50;;;3.95;;
9906;SDS011;4992;51.628;6.664;2023-08-06T01:05:21;5.03;;;4.53;;
9906;SDS011;4992;51.628;6.664;2023-08-06T01:10:25;6.85;;;3.85;;
9906;SDS011;4992;51.628;6.664;2023-08-06T01:15:29;4.18;;;3.70;;
9906;SDS011;4992;51.628;6.664;2023-08-06T01:17:56;4.68;;;3.80;;
9906;SDS011;4992;51.628;6.664;2023-08-06T01:20:27;4.78;;;3.28;;
9906;SDS011;4992;51.628;6.664;2023-08-06T01:22:53;5.45;;;3.78;;
9906;SDS011;4992;51.628;6.664;2023-08-06T01:25:19;4.35;;;3.67;;
9906;SDS011;4992;51.628;6.664;2023-08-06T01:27:47;5.35;;;4.10;;
9906;SDS011;4992;51.628;6.664;2023-08-06T01:30:22;7.60;;;4.20;;
9906;SDS011;4992;51.628;6.664;2023-08-06T01:32:53;5.05;;;3.92;;
9906;SDS011;4992;51.628;6.664;2023-08-06T01:35:19;4.65;;;4.13;;
9906;SDS011;4992;51.628;6.664;2023-08-06T01:37:45;6.25;;;4.82;;
9906;SDS011;4992;51.628;6.664;2023-08-06T01:40:12;5.35;;;4.55;;
9906;SDS011;4992;51.628;6.664;2023-08-06T01:42:39;5.35;;;4.70;;
9906;SDS011;4992;51.628;6.664;2023-08-06T01:45:05;6.20;;;4.60;;
9906;SDS011;4992;51.628;6.664;2023-08-06T01:47:31;5.63;;;4.28;;
9906;SDS011;4992;51.628;6.664;2023-08-06T01:49:57;6.22;;;4.97;;
9906;SDS011;4992;51.628;6.664;2023-08-06T01:52:23;6.80;;;5.15;;
9906;SDS011;4992;51.628;6.664;2023-08-06T01:54:49;6.10;;;5.45;;
9906;SDS011;4992;51.628;6.664;2023-08-06T01:57:15;6.82;;;5.50;;
9906;SDS011;4992;51.628;6.664;2023-08-06T01:59:41;5.90;;;5.13;;
9906;SDS011;4992;51.628;6.664;2023-08-06T02:02:07;7.35;;;5.53;;
9906;SDS011;4992;51.628;6.664;2023-08-06T02:04:33;5.95;;;5.38;;
9906;SDS011;4992;51.628;6.664;2023-08-06T02:06:59;7.20;;;6.50;;
9906;SDS011;4992;51.628;6.664;2023-08-06T02:09:25;6.82;;;6.20;;
9906;SDS011;4992;51.628;6.664;2023-08-06T02:11:51;7.30;;;6.63;;
9906;SDS011;4992;51.628;6.664;2023-08-06T02:14:17;7.57;;;6.68;;
9906;SDS011;4992;51.628;6.664;2023-08-06T02:16:43;8.15;;;6.72;;
9906;SDS011;4992;51.628;6.664;2023-08-06T02:19:09;6.40;;;5.80;;
9906;SDS011;4992;51.628;6.664;2023-08-06T02:21:34;6.72;;;6.03;;
9906;SDS011;4992;51.628;6.664;2023-08-06T02:24:00;6.85;;;6.20;;
9906;SDS011;4992;51.628;6.664;2023-08-06T02:26:26;8.27;;;6.30;;
9906;SDS011;4992;51.628;6.664;2023-08-06T02:28:52;8.88;;;7.32;;
9906;SDS011;4992;51.628;6.664;2023-08-06T02:31:18;11.10;;;6.70;;
9906;SDS011;4992;51.628;6.664;2023-08-06T02:33:44;6.57;;;6.05;;
9906;SDS011;4992;51.628;6.664;2023-08-06T02:36:10;8.50;;;6.63;;
9906;SDS011;4992;51.628;6.664;2023-08-06T02:38:36;6.25;;;5.50;;
9906;SDS011;4992;51.628;6.664;2023-08-06T02:41:02;10.70;;;5.35;;
9906;SDS011;4992;51.628;6.664;2023-08-06T02:43:29;7.43;;;5.18;;
9906;SDS011;4992;51.628;6.664;2023-08-06T02:45:58;7.57;;;5.22;;
9906;SDS011;4992;51.628;6.664;2023-08-06T02:48:24;8.52;;;4.75;;
9906;SDS011;4992;51.628;6.664;2023-08-06T02:50:50;5.47;;;4.72;;
9906;SDS011;4992;51.628;6.664;2023-08-06T02:53:16;7.90;;;4.95;;
9906;SDS011;4992;51.628;6.664;2023-08-06T02:55:48;7.75;;;4.95;;
9906;SDS011;4992;51.628;6.664;2023-08-06T02:58:14;5.28;;;4.78;;
9906;SDS011;4992;51.628;6.664;2023-08-06T03:00:41;4.90;;;4.50;;
9906;SDS011;4992;51.628;6.664;2023-08-06T03:03:08;4.80;;;4.25;;
9906;SDS011;4992;51.628;6.664;2023-08-06T03:05:34;5.03;;;4.43;;
9906;SDS011;4992;51.628;6.664;2023-08-06T03:07:59;5.55;;;4.50;;
9906;SDS011;4992;51.628;6.664;2023-08-06T03:10:25;4.35;;;3.95;;
9906;SDS011;4992;51.628;6.664;2023-08-06T03:12:51;5.47;;;4.53;;
9906;SDS011;4992;51.628;6.664;2023-08-06T03:15:17;5.22;;;4.30;;
9906;SDS011;4992;51.628;6.664;2023-08-06T03:17:43;6.78;;;4.72;;
9906;SDS011;4992;51.628;6.664;2023-08-06T03:20:10;6.75;;;4.88;;
9906;SDS011;4992;51.628;6.664;2023-08-06T03:22:36;5.07;;;4.57;;
9906;SDS011;4992;51.628;6.664;2023-08-06T03:25:02;8.80;;;4.75;;
9906;SDS011;4992;51.628;6.664;2023-08-06T03:27:28;6.43;;;4.90;;
9906;SDS011;4992;51.628;6.664;2023-08-06T03:29:54;6.57;;;4.72;;
9906;SDS011;4992;51.628;6.664;2023-08-06T03:32:20;6.15;;;4.75;;
9906;SDS011;4992;51.628;6.664;2023-08-06T03:34:46;7.63;;;4.30;;
9906;SDS011;4992;51.628;6.664;2023-08-06T03:37:12;4.75;;;4.28;;
9906;SDS011;4992;51.628;6.664;2023-08-06T03:39:38;4.65;;;4.25;;
9906;SDS011;4992;51.628;6.664;2023-08-06T03:42:04;6.10;;;4.57;;
9906;SDS011;4992;51.628;6.664;2023-08-06T03:44:30;4.93;;;3.72;;
9906;SDS011;4992;51.628;6.664;2023-08-06T03:46:56;8.25;;;4.30;;
9906;SDS011;4992;51.628;6.664;2023-08-06T03:49:22;4.97;;;4.25;;
9906;SDS011;4992;51.628;6.664;2023-08-06T03:51:48;4.78;;;4.38;;
9906;SDS011;4992;51.628;6.664;2023-08-06T03:54:14;3.88;;;3.58;;
9906;SDS011;4992;51.628;6.664;2023-08-06T03:56:40;4.97;;;4.55;;
9906;SDS011;4992;51.628;6.664;2023-08-06T03:59:06;4.75;;;4.22;;
9906;SDS011;4992;51.628;6.664;2023-08-06T04:01:32;6.05;;;4.60;;
9906;SDS011;4992;51.628;6.664;2023-08-06T04:03:58;4.88;;;4.38;;
9906;SDS011;4992;51.628;6.664;2023-08-06T04:06:24;6.43;;;4.20;;
9906;SDS011;4992;51.628;6.664;2023-08-06T04:08:50;6.80;;;4.05;;
9906;SDS011;4992;51.628;6.664;2023-08-06T04:11:16;5.43;;;4.10;;
9906;SDS011;4992;51.628;6.664;2023-08-06T04:13:42;5.95;;;3.95;;
9906;SDS011;4992;51.628;6.664;2023-08-06T04:16:09;4.95;;;3.53;;
9906;SDS011;4992;51.628;6.664;2023-08-06T04:18:35;6.15;;;4.30;;
9906;SDS011;4992;51.628;6.664;2023-08-06T04:21:01;5.80;;;3.85;;
9906;SDS011;4992;51.628;6.664;2023-08-06T04:23:27;4.43;;;3.80;;
9906;SDS011;4992;51.628;6.664;2023-08-06T04:25:56;4.43;;;4.03;;
9906;SDS011;4992;51.628;6.664;2023-08-06T04:28:22;6.13;;;3.92;;
9906;SDS011;4992;51.628;6.664;2023-08-06T04:30:48;6.70;;;4.22;;
9906;SDS011;4992;51.628;6.664;2023-08-06T04:33:14;5.63;;;4.63;;
9906;SDS011;4992;51.628;6.664;2023-08-06T04:35:40;5.97;;;4.35;;
9906;SDS011;4992;51.628;6.664;2023-08-06T04:38:06;4.57;;;4.18;;
9906;SDS011;4992;51.628;6.664;2023-08-06T04:40:35;4.70;;;4.30;;
9906;SDS011;4992;51.628;6.664;2023-08-06T04:43:02;4.88;;;4.20;;
9906;SDS011;4992;51.628;6.664;2023-08-06T04:45:28;4.95;;;4.30;;
9906;SDS011;4992;51.628;6.664;2023-08-06T04:47:54;8.55;;;4.47;;
9906;SDS011;4992;51.628;6.664;2023-08-06T04:50:20;4.60;;;4.15;;
9906;SDS011;4992;51.628;6.664;2023-08-06T04:52:46;4.75;;;3.95;;
9906;SDS011;4992;51.628;6.664;2023-08-06T04:55:12;5.15;;;4.03;;
9906;SDS011;4992;51.628;6.664;2023-08-06T04:57:38;5.22;;;4.10;;
9906;SDS011;4992;51.628;6.664;2023-08-06T05:00:04;6.07;;;4.38;;
9906;SDS011;4992;51.628;6.664;2023-08-06T05:02:30;12.15;;;4.20;;
9906;SDS011;4992;51.628;6.664;2023-08-06T05:04:57;7.22;;;4.43;;
9906;SDS011;4992;51.628;6.664;2023-08-06T05:07:23;4.57;;;4.13;;
9906;SDS011;4992;51.628;6.664;2023-08-06T05:09:49;7.35;;;4.80;;
9906;SDS011;4992;51.628;6.664;2023-08-06T05:12:15;5.93;;;4.47;;
9906;SDS011;4992;51.628;6.664;2023-08-06T05:14:41;5.25;;;4.07;;
9906;SDS011;4992;51.628;6.664;2023-08-06T05:17:07;5.18;;;4.50;;
9906;SDS011;4992;51.628;6.664;2023-08-06T05:19:33;5.80;;;4.60;;
9906;SDS011;4992;51.628;6.664;2023-08-06T05:21:59;4.38;;;4.03;;
9906;SDS011;4992;51.628;6.664;2023-08-06T05:24:26;6.60;;;4.80;;
9906;SDS011;4992;51.628;6.664;2023-08-06T05:26:52;7.63;;;4.63;;
9906;SDS011;4992;51.628;6.664;2023-08-06T05:29:18;5.70;;;5.15;;
9906;SDS011;4992;51.628;6.664;2023-08-06T05:31:44;5.43;;;4.93;;
9906;SDS011;4992;51.628;6.664;2023-08-06T05:34:10;6.57;;;4.95;;
9906;SDS011;4992;51.628;6.664;2023-08-06T05:36:36;6.07;;;5.47;;
9906;SDS011;4992;51.628;6.664;2023-08-06T05:39:02;6.07;;;5.57;;
9906;SDS011;4992;51.628;6.664;2023-08-06T05:41:28;5.57;;;5.07;;
9906;SDS011;4992;51.628;6.664;2023-08-06T05:43:54;5.93;;;4.60;;
9906;SDS011;4992;51.628;6.664;2023-08-06T05:46:20;10.45;;;4.60;;
9906;SDS011;4992;51.628;6.664;2023-08-06T05:48:46;5.65;;;4.30;;
9906;SDS011;4992;51.628;6.664;2023-08-06T05:51:12;4.53;;;3.90;;
9906;SDS011;4992;51.628;6.664;2023-08-06T05:53:38;5.00;;;4.50;;
9906;SDS011;4992;51.628;6.664;2023-08-06T05:56:04;5.05;;;4.00;;
9906;SDS011;4992;51.628;6.664;2023-08-06T05:58:30;5.57;;;4.95;;
9906;SDS011;4992;51.628;6.664;2023-08-06T06:00:56;8.05;;;4.47;;
9906;SDS011;4992;51.628;6.664;2023-08-06T06:03:22;5.00;;;4.28;;
9906;SDS011;4992;51.628;6.664;2023-08-06T06:05:48;6.88;;;4.03;;
9906;SDS011;4992;51.628;6.664;2023-08-06T06:08:14;6.40;;;3.72;;
9906;SDS011;4992;51.628;6.664;2023-08-06T06:10:40;5.72;;;3.70;;
9906;SDS011;4992;51.628;6.664;2023-08-06T06:13:06;5.63;;;3.50;;
9906;SDS011;4992;51.628;6.664;2023-08-06T06:15:32;5.00;;;3.53;;
9906;SDS011;4992;51.628;6.664;2023-08-06T06:17:58;6.75;;;3.65;;
9906;SDS011;4992;51.628;6.664;2023-08-06T06:20:24;4.15;;;3.72;;
9906;SDS011;4992;51.628;6.664;2023-08-06T06:22:50;4.65;;;3.78;;
9906;SDS011;4992;51.628;6.664;2023-08-06T06:25:16;3.95;;;2.90;;
9906;SDS011;4992;51.628;6.664;2023-08-06T06:27:42;8.15;;;3.65;;
9906;SDS011;4992;51.628;6.664;2023-08-06T06:30:08;5.25;;;3.30;;
9906;SDS011;4992;51.628;6.664;2023-08-06T06:32:34;5.25;;;3.25;;
9906;SDS011;4992;51.628;6.664;2023-08-06T06:35:00;3.70;;;2.97;;
9906;SDS011;4992;51.628;6.664;2023-08-06T06:37:26;4.78;;;3.33;;
9906;SDS011;4992;51.628;6.664;2023-08-06T06:39:52;3.90;;;3.60;;
9906;SDS011;4992;51.628;6.664;2023-08-06T06:42:18;4.68;;;4.20;;
9906;SDS011;4992;51.628;6.664;2023-08-06T06:44:44;3.80;;;3.50;;
9906;SDS011;4992;51.628;6.664;2023-08-06T06:47:10;4.20;;;3.40;;
9906;SDS011;4992;51.628;6.664;2023-08-06T06:49:36;4.10;;;3.33;;
9906;SDS011;4992;51.628;6.664;2023-08-06T06:52:02;5.88;;;3.33;;
9906;SDS011;4992;51.628;6.664;2023-08-06T06:54:28;3.55;;;3.00;;
9906;SDS011;4992;51.628;6.664;2023-08-06T06:56:54;5.18;;;2.88;;
9906;SDS011;4992;51.628;6.664;2023-08-06T06:59:20;4.50;;;3.10;;
9906;SDS011;4992;51.628;6.664;2023-08-06T07:01:46;4.43;;;3.05;;
9906;SDS011;4992;51.628;6.664;2023-08-06T07:04:12;4.65;;;3.05;;
9906;SDS011;4992;51.628;6.664;2023-08-06T07:06:38;4.47;;;2.90;;
9906;SDS011;4992;51.628;6.664;2023-08-06T07:09:04;4.82;;;3.22;;
9906;SDS011;4992;51.628;6.664;2023-08-06T07:11:30;5.07;;;3.17;;
9906;SDS011;4992;51.628;6.664;2023-08-06T07:13:57;4.05;;;2.53;;
9906;SDS011;4992;51.628;6.664;2023-08-06T07:16:26;4.18;;;2.72;;
9906;SDS011;4992;51.628;6.664;2023-08-06T07:18:53;3.67;;;2.67;;
9906;SDS011;4992;51.628;6.664;2023-08-06T07:21:19;3.85;;;2.42;;
9906;SDS011;4992;51.628;6.664;2023-08-06T07:23:45;5.35;;;2.67;;
9906;SDS011;4992;51.628;6.664;2023-08-06T07:26:11;4.85;;;2.90;;
9906;SDS011;4992;51.628;6.664;2023-08-06T07:28:37;4.38;;;2.72;;
9906;SDS011;4992;51.628;6.664;2023-08-06T07:31:03;3.72;;;2.90;;
9906;SDS011;4992;51.628;6.664;2023-08-06T07:33:29;3.40;;;2.92;;
9906;SDS011;4992;51.628;6.664;2023-08-06T07:35:55;4.57;;;2.92;;
9906;SDS011;4992;51.628;6.664;2023-08-06T07:38:21;4.90;;;3.28;;
9906;SDS011;4992;51.628;6.664;2023-08-06T07:40:47;5.18;;;3.13;;
9906;SDS011;4992;51.628;6.664;2023-08-06T07:43:13;6.05;;;3.85;;
9906;SDS011;4992;51.628;6.664;2023-08-06T07:45:39;3.78;;;3.47;;
9906;SDS011;4992;51.628;6.664;2023-08-06T07:48:05;4.70;;;3.40;;
9906;SDS011;4992;51.628;6.664;2023-08-06T07:50:31;6.75;;;3.05;;
9906;SDS011;4992;51.628;6.664;2023-08-06T07:52:57;4.03;;;3.35;;
9906;SDS011;4992;51.628;6.664;2023-08-06T07:55:23;3.92;;;2.88;;
9906;SDS011;4992;51.628;6.664;2023-08-06T07:57:49;4.20;;;2.53;;
9906;SDS011;4992;51.628;6.664;2023-08-06T08:00:15;5.22;;;2.53;;
9906;SDS011;4992;51.628;6.664;2023-08-06T08:02:41;2.80;;;2.53;;
9906;SDS011;4992;51.628;6.664;2023-08-06T08:05:07;5.18;;;2.40;;
9906;SDS011;4992;51.628;6.664;2023-08-06T08:07:33;3.75;;;2.58;;
9906;SDS011;4992;51.628;6.664;2023-08-06T08:09:59;3.35;;;2.92;;
9906;SDS011;4992;51.628;6.664;2023-08-06T08:12:25;3.45;;;3.15;;
9906;SDS011;4992;51.628;6.664;2023-08-06T08:14:51;3.72;;;3.08;;
9906;SDS011;4992;51.628;6.664;2023-08-06T08:17:17;3.50;;;3.25;;
9906;SDS011;4992;51.628;6.664;2023-08-06T08:19:43;3.35;;;3.05;;
9906;SDS011;4992;51.628;6.664;2023-08-06T08:22:09;3.42;;;3.13;;
9906;SDS011;4992;51.628;6.664;2023-08-06T08:24:35;3.70;;;3.40;;
9906;SDS011;4992;51.628;6.664;2023-08-06T08:27:01;5.75;;;2.90;;
9906;SDS011;4992;51.628;6.664;2023-08-06T08:29:27;2.72;;;2.30;;
9906;SDS011;4992;51.628;6.664;2023-08-06T08:31:53;3.17;;;2.38;;
9906;SDS011;4992;51.628;6.664;2023-08-06T08:34:18;2.63;;;2.13;;
9906;SDS011;4992;51.628;6.664;2023-08-06T08:36:44;2.63;;;2.20;;
9906;SDS011;4992;51.628;6.664;2023-08-06T08:39:12;3.28;;;1.80;;
9906;SDS011;4992;51.628;6.664;2023-08-06T08:41:38;2.95;;;2.47;;
9906;SDS011;4992;51.628;6.664;2023-08-06T08:44:08;3.20;;;2.42;;
9906;SDS011;4992;51.628;6.664;2023-08-06T08:46:35;3.15;;;2.70;;
9906;SDS011;4992;51.628;6.664;2023-08-06T08:49:02;3.97;;;3.03;;
9906;SDS011;4992;51.628;6.664;2023-08-06T08:51:28;3.72;;;3.00;;
9906;SDS011;4992;51.628;6.664;2023-08-06T08:53:54;4.10;;;3.42;;
9906;SDS011;4992;51.628;6.664;2023-08-06T08:56:22;5.75;;;5.25;;
9906;SDS011;4992;51.628;6.664;2023-08-06T08:58:48;9.10;;;8.40;;
9906;SDS011;4992;51.628;6.664;2023-08-06T09:01:14;9.73;;;9.00;;
9906;SDS011;4992;51.628;6.664;2023-08-06T09:03:41;10.63;;;9.82;;
9906;SDS011;4992;51.628;6.664;2023-08-06T09:06:07;10.98;;;10.00;;
9906;SDS011;4992;51.628;6.664;2023-08-06T09:08:36;10.32;;;9.27;;
9906;SDS011;4992;51.628;6.664;2023-08-06T09:11:03;9.68;;;8.70;;
9906;SDS011;4992;51.628;6.664;2023-08-06T09:13:30;9.57;;;8.77;;
9906;SDS011;4992;51.628;6.664;2023-08-06T09:15:56;9.70;;;8.88;;
9906;SDS011;4992;51.628;6.664;2023-08-06T09:18:25;9.60;;;8.80;;
9906;SDS011;4992;51.628;6.664;2023-08-06T09:20:52;9.75;;;9.02;;
9906;SDS011;4992;51.628;6.664;2023-08-06T09:23:18;9.73;;;8.82;;
9906;SDS011;4992;51.628;6.664;2023-08-06T09:25:45;10.20;;;8.70;;
9906;SDS011;4992;51.628;6.664;2023-08-06T09:28:11;9.73;;;8.98;;
9906;SDS011;4992;51.628;6.664;2023-08-06T09:30:37;8.90;;;8.30;;
9906;SDS011;4992;51.628;6.664;2023-08-06T09:33:03;9.65;;;8.93;;
9906;SDS011;4992;51.628;6.664;2023-08-06T09:35:30;8.50;;;7.80;;
9906;SDS011;4992;51.628;6.664;2023-08-06T09:38:05;8.40;;;7.80;;
9906;SDS011;4992;51.628;6.664;2023-08-06T09:40:32;8.25;;;7.57;;
9906;SDS011;4992;51.628;6.664;2023-08-06T09:42:58;8.88;;;8.07;;
9906;SDS011;4992;51.628;6.664;2023-08-06T09:45:28;8.35;;;7.75;;
9906;SDS011;4992;51.628;6.664;2023-08-06T09:47:56;8.20;;;7.60;;
9906;SDS011;4992;51.628;6.664;2023-08-06T09:50:22;8.63;;;7.95;;
9906;SDS011;4992;51.628;6.664;2023-08-06T09:52:48;8.68;;;7.80;;
9906;SDS011;4992;51.628;6.664;2023-08-06T09:55:16;10.02;;;9.07;;
9906;SDS011;4992;51.628;6.664;2023-08-06T09:57:43;9.98;;;9.18;;
9906;SDS011;4992;51.628;6.664;2023-08-06T10:00:09;10.15;;;9.32;;
9906;SDS011;4992;51.628;6.664;2023-08-06T10:02:39;8.55;;;7.95;;
9906;SDS011;4992;51.628;6.664;2023-08-06T10:05:06;8.80;;;8.10;;
9906;SDS011;4992;51.628;6.664;2023-08-06T10:07:32;8.95;;;8.25;;
9906;SDS011;4992;51.628;6.664;2023-08-06T10:09:59;8.27;;;7.57;;
9906;SDS011;4992;51.628;6.664;2023-08-06T10:12:25;7.68;;;7.18;;
9906;SDS011;4992;51.628;6.664;2023-08-06T10:14:52;7.55;;;7.05;;
9906;SDS011;4992;51.628;6.664;2023-08-06T10:17:20;7.97;;;7.28;;
9906;SDS011;4992;51.628;6.664;2023-08-06T10:19:47;7.63;;;7.03;;
9906;SDS011;4992;51.628;6.664;2023-08-06T10:22:14;7.00;;;6.50;;
9906;SDS011;4992;51.628;6.664;2023-08-06T10:32:48;7.28;;;6.78;;
9906;SDS011;4992;51.628;6.664;2023-08-06T10:35:27;7.10;;;6.50;;
9906;SDS011;4992;51.628;6.664;2023-08-06T10:37:57;7.40;;;6.90;;
9906;SDS011;4992;51.628;6.664;2023-08-06T10:40:23;7.70;;;7.00;;
9906;SDS011;4992;51.628;6.664;2023-08-06T10:42:51;6.95;;;6.45;;
9906;SDS011;4992;51.628;6.664;2023-08-06T10:45:17;8.35;;;7.60;;
9906;SDS011;4992;51.628;6.664;2023-08-06T10:47:43;7.53;;;6.88;;
9906;SDS011;4992;51.628;6.664;2023-08-06T10:50:15;7.50;;;6.90;;
9906;SDS011;4992;51.628;6.664;2023-08-06T10:52:43;7.25;;;6.55;;
9906;SDS011;4992;51.628;6.664;2023-08-06T10:55:09;8.02;;;7.32;;
9906;SDS011;4992;51.628;6.664;2023-08-06T10:57:35;7.18;;;6.57;;
9906;SDS011;4992;51.628;6.664;2023-08-06T11:00:03;7.55;;;6.95;;
9906;SDS011;4992;51.628;6.664;2023-08-06T11:02:32;8.10;;;7.32;;
9906;SDS011;4992;51.628;6.664;2023-08-06T11:05:04;9.07;;;8.38;;
9906;SDS011;4992;51.628;6.664;2023-08-06T11:07:29;4.00;;;3.78;;
9906;SDS011;4992;51.628;6.664;2023-08-06T11:10:05;3.17;;;2.92;;
9906;SDS011;4992;51.628;6.664;2023-08-06T11:12:32;1.75;;;1.65;;
9906;SDS011;4992;51.628;6.664;2023-08-06T11:14:59;1.60;;;1.50;;
9906;SDS011;4992;51.628;6.664;2023-08-06T11:17:25;1.75;;;1.65;;
9906;SDS011;4992;51.628;6.664;2023-08-06T11:19:52;1.77;;;1.67;;
9906;SDS011;4992;51.628;6.664;2023-08-06T11:22:20;1.67;;;1.40;;
9906;SDS011;4992;51.628;6.664;2023-08-06T11:24:46;2.55;;;1.80;;
9906;SDS011;4992;51.628;6.664;2023-08-06T11:27:13;1.65;;;1.55;;
9906;SDS011;4992;51.628;6.664;2023-08-06T11:29:40;1.30;;;1.20;;
9906;SDS011;4992;51.628;6.664;2023-08-06T11:32:06;1.40;;;0.95;;
9906;SDS011;4992;51.628;6.664;2023-08-06T11:34:33;0.80;;;0.80;;
9906;SDS011;4992;51.628;6.664;2023-08-06T11:36:58;0.70;;;0.70;;
9906;SDS011;4992;51.628;6.664;2023-08-06T11:39:24;0.93;;;0.55;;
9906;SDS011;4992;51.628;6.664;2023-08-06T11:41:50;0.47;;;0.47;;
9906;SDS011;4992;51.628;6.664;2023-08-06T11:44:18;0.75;;;0.50;;
9906;SDS011;4992;51.628;6.664;2023-08-06T11:46:53;0.20;;;0.20;;
9906;SDS011;4992;51.628;6.664;2023-08-06T11:49:33;0.75;;;0.30;;
9906;SDS011;4992;51.628;6.664;2023-08-06T11:54:41;2.05;;;0.20;;
9906;SDS011;4992;51.628;6.664;2023-08-06T11:57:07;0.20;;;0.20;;
9906;SDS011;4992;51.628;6.664;2023-08-06T11:59:33;1.77;;;0.30;;
9906;SDS011;4992;51.628;6.664;2023-08-06T12:02:00;0.20;;;0.20;;
9906;SDS011;4992;51.628;6.664;2023-08-06T12:04:26;0.20;;;0.20;;
9906;SDS011;4992;51.628;6.664;2023-08-06T12:06:52;0.75;;;0.20;;
9906;SDS011;4992;51.628;6.664;2023-08-06T12:09:18;0.30;;;0.20;;
9906;SDS011;4992;51.628;6.664;2023-08-06T12:11:45;3.67;;;0.52;;
9906;SDS011;4992;51.628;6.664;2023-08-06T12:14:11;0.75;;;0.40;;
9906;SDS011;4992;51.628;6.664;2023-08-06T12:16:37;0.30;;;0.30;;
9906;SDS011;4992;51.628;6.664;2023-08-06T12:19:03;1.45;;;0.28;;
9906;SDS011;4992;51.628;6.664;2023-08-06T12:21:29;0.20;;;0.20;;
9906;SDS011;4992;51.628;6.664;2023-08-06T12:23:55;0.70;;;0.30;;
9906;SDS011;4992;51.628;6.664;2023-08-06T12:26:21;0.20;;;0.20;;
9906;SDS011;4992;51.628;6.664;2023-08-06T12:28:47;0.30;;;0.30;;
9906;SDS011;4992;51.628;6.664;2023-08-06T12:31:14;0.55;;;0.30;;
9906;SDS011;4992;51.628;6.664;2023-08-06T12:33:40;1.25;;;0.90;;
9906;SDS011;4992;51.628;6.664;2023-08-06T12:36:06;0.30;;;0.30;;
9906;SDS011;4992;51.628;6.664;2023-08-06T12:38:32;0.50;;;0.50;;
9906;SDS011;4992;51.628;6.664;2023-08-06T12:40:58;0.63;;;0.50;;
9906;SDS011;4992;51.628;6.664;2023-08-06T12:43:24;0.65;;;0.40;;
9906;SDS011;4992;51.628;6.664;2023-08-06T12:45:50;1.85;;;0.52;;
9906;SDS011;4992;51.628;6.664;2023-08-06T12:48:16;0.45;;;0.45;;
9906;SDS011;4992;51.628;6.664;2023-08-06T12:50:42;1.17;;;0.70;;
9906;SDS011;4992;51.628;6.664;2023-08-06T12:53:08;0.77;;;0.77;;
9906;SDS011;4992;51.628;6.664;2023-08-06T12:55:34;0.75;;;0.75;;
9906;SDS011;4992;51.628;6.664;2023-08-06T12:58:00;1.95;;;0.93;;
9906;SDS011;4992;51.628;6.664;2023-08-06T13:00:26;0.80;;;0.70;;
9906;SDS011;4992;51.628;6.664;2023-08-06T13:02:52;1.65;;;1.05;;
9906;SDS011;4992;51.628;6.664;2023-08-06T13:05:18;1.73;;;1.35;;
9906;SDS011;4992;51.628;6.664;2023-08-06T13:07:44;1.95;;;1.08;;
9906;SDS011;4992;51.628;6.664;2023-08-06T13:10:10;1.70;;;1.60;;
9906;SDS011;4992;51.628;6.664;2023-08-06T13:12:36;2.72;;;1.20;;
9906;SDS011;4992;51.628;6.664;2023-08-06T13:15:02;1.35;;;1.23;;
9906;SDS011;4992;51.628;6.664;2023-08-06T13:17:28;1.70;;;1.60;;
9906;SDS011;4992;51.628;6.664;2023-08-06T13:19:54;1.88;;;1.77;;
9906;SDS011;4992;51.628;6.664;2023-08-06T13:22:20;1.90;;;1.80;;
9906;SDS011;4992;51.628;6.664;2023-08-06T13:24:46;2.40;;;1.90;;
9906;SDS011;4992;51.628;6.664;2023-08-06T13:27:12;2.25;;;1.70;;
9906;SDS011;4992;51.628;6.664;2023-08-06T13:29:38;2.72;;;2.08;;
9906;SDS011;4992;51.628;6.664;2023-08-06T13:32:04;2.05;;;1.70;;
9906;SDS011;4992;51.628;6.664;2023-08-06T13:34:30;2.10;;;1.92;;
9906;SDS011;4992;51.628;6.664;2023-08-06T13:36:56;1.73;;;1.63;;
9906;SDS011;4992;51.628;6.664;2023-08-06T13:39:22;2.38;;;2.17;;
9906;SDS011;4992;51.628;6.664;2023-08-06T13:41:48;3.65;;;2.03;;
9906;SDS011;4992;51.628;6.664;2023-08-06T13:44:14;2.60;;;2.08;;
9906;SDS011;4992;51.628;6.664;2023-08-06T13:46:40;3.03;;;2.30;;
9906;SDS011;4992;51.628;6.664;2023-08-06T13:49:06;2.65;;;1.60;;
9906;SDS011;4992;51.628;6.664;2023-08-06T13:51:32;1.70;;;1.60;;
9906;SDS011;4992;51.628;6.664;2023-08-06T13:54:00;2.20;;;1.80;;
9906;SDS011;4992;51.628;6.664;2023-08-06T13:56:26;2.00;;;1.90;;
9906;SDS011;4992;51.628;6.664;2023-08-06T13:58:54;2.50;;;2.13;;
9906;SDS011;4992;51.628;6.664;2023-08-06T14:01:20;2.00;;;1.90;;
9906;SDS011;4992;51.628;6.664;2023-08-06T14:03:46;1.92;;;1.60;;
9906;SDS011;4992;51.628;6.664;2023-08-06T14:06:12;2.65;;;2.20;;
9906;SDS011;4992;51.628;6.664;2023-08-06T14:08:38;2.38;;;2.17;;
9906;SDS011;4992;51.628;6.664;2023-08-06T14:11:05;3.88;;;2.15;;
9906;SDS011;4992;51.628;6.664;2023-08-06T14:13:31;1.77;;;1.67;;
9906;SDS011;4992;51.628;6.664;2023-08-06T14:15:57;2.83;;;2.00;;
9906;SDS011;4992;51.628;6.664;2023-08-06T14:18:23;3.40;;;2.13;;
9906;SDS011;4992;51.628;6.664;2023-08-06T14:20:49;2.38;;;2.00;;
9906;SDS011;4992;51.628;6.664;2023-08-06T14:23:15;2.88;;;2.10;;
9906;SDS011;4992;51.628;6.664;2023-08-06T14:25:41;2.45;;;1.73;;
9906;SDS011;4992;51.628;6.664;2023-08-06T14:28:07;2.40;;;2.00;;
9906;SDS011;4992;51.628;6.664;2023-08-06T14:30:34;1.90;;;1.77;;
9906;SDS011;4992;51.628;6.664;2023-08-06T14:33:00;3.65;;;2.10;;
9906;SDS011;4992;51.628;6.664;2023-08-06T14:35:26;3.42;;;2.15;;
9906;SDS011;4992;51.628;6.664;2023-08-06T14:37:52;2.17;;;1.98;;
9906;SDS011;4992;51.628;6.664;2023-08-06T14:40:18;2.20;;;1.80;;
9906;SDS011;4992;51.628;6.664;2023-08-06T14:42:44;2.47;;;1.77;;
9906;SDS011;4992;51.628;6.664;2023-08-06T14:45:10;2.60;;;1.95;;
9906;SDS011;4992;51.628;6.664;2023-08-06T14:47:36;3.22;;;1.90;;
9906;SDS011;4992;51.628;6.664;2023-08-06T14:50:02;3.03;;;2.05;;
9906;SDS011;4992;51.628;6.664;2023-08-06T14:52:29;3.10;;;1.98;;
9906;SDS011;4992;51.628;6.664;2023-08-06T14:54:55;2.78;;;1.90;;
9906;SDS011;4992;51.628;6.664;2023-08-06T14:57:21;2.53;;;1.65;;
9906;SDS011;4992;51.628;6.664;2023-08-06T14:59:52;2.03;;;1.77;;
9906;SDS011;4992;51.628;6.664;2023-08-06T15:02:18;2.75;;;1.80;;
9906;SDS011;4992;51.628;6.664;2023-08-06T15:04:44;1.98;;;1.40;;
9906;SDS011;4992;51.628;6.664;2023-08-06T15:07:10;2.17;;;1.88;;
9906;SDS011;4992;51.628;6.664;2023-08-06T15:09:36;1.80;;;1.60;;
9906;SDS011;4992;51.628;6.664;2023-08-06T15:12:02;2.92;;;2.20;;
9906;SDS011;4992;51.628;6.664;2023-08-06T15:14:28;1.42;;;1.15;;
9906;SDS011;4992;51.628;6.664;2023-08-06T15:16:54;6.32;;;2.70;;
9906;SDS011;4992;51.628;6.664;2023-08-06T15:19:22;1.48;;;1.25;;
9906;SDS011;4992;51.628;6.664;2023-08-06T15:21:48;1.92;;;1.60;;
9906;SDS011;4992;51.628;6.664;2023-08-06T15:24:14;1.48;;;1.08;;
9906;SDS011;4992;51.628;6.664;2023-08-06T15:26:40;1.70;;;1.60;;